sensor_id;sensor_type;location;lat;lon;timestamp;noise_LAeq;noise_LA_min;noise_LA_max;noise_LA01;noise_LA95
58251;Laerm;51449;51.676;5.812;2023-12-29T00:01:38;51.97;49.06;55.98;;
58251;Laerm;51449;51.676;5.812;2023-12-29T00:04:00;51.77;49.18;55.19;;
58251;Laerm;51449;51.676;5.812;2023-12-29T00:06:22;51.66;48.87;54.35;;
58251;Laerm;51449;51.676;5.812;2023-12-29T00:08:44;51.61;48.67;55.45;;
58251;Laerm;51449;51.676;5.812;2023-12-29T00:11:06;51.82;48.95;55.20;;
58251;Laerm;51449;51.676;5.812;2023-12-29T00:13:28;51.68;48.84;55.44;;
58251;Laerm;51449;51.676;5.812;2023-12-29T00:15:54;51.72;47.93;56.03;;
58251;Laerm;51449;51.676;5.812;2023-12-29T00:18:16;52.53;48.70;56.19;;
58251;Laerm;51449;51.676;5.812;2023-12-29T00:20:38;53.19;50.75;56.19;;
58251;Laerm;51449;51.676;5.812;2023-12-29T00:23:03;53.55;50.74;56.49;;
58251;Laerm;51449;51.676;5.812;2023-12-29T00:25:25;53.36;50.45;56.37;;
58251;Laerm;51449;51.676;5.812;2023-12-29T00:27:46;53.17;50.36;56.23;;
58251;Laerm;51449;51.676;5.812;2023-12-29T00:30:09;53.27;50.10;56.85;;
58251;Laerm;51449;51.676;5.812;2023-12-29T00:32:31;53.14;50.04;56.31;;
58251;Laerm;51449;51.676;5.812;2023-12-29T00:34:52;53.41;49.79;60.10;;
58251;Laerm;51449;51.676;5.812;2023-12-29T00:37:16;53.95;50.75;57.98;;
58251;Laerm;51449;51.676;5.812;2023-12-29T00:39:37;54.14;50.49;57.34;;
58251;Laerm;51449;51.676;5.812;2023-12-29T00:42:03;54.01;50.65;57.82;;
58251;Laerm;51449;51.676;5.812;2023-12-29T00:44:27;52.89;50.34;56.71;;
58251;Laerm;51449;51.676;5.812;2023-12-29T00:46:50;52.84;49.91;56.17;;
58251;Laerm;51449;51.676;5.812;2023-12-29T00:49:12;52.56;49.92;55.93;;
58251;Laerm;51449;51.676;5.812;2023-12-29T00:51:39;52.31;49.96;55.45;;
58251;Laerm;51449;51.676;5.812;2023-12-29T00:54:03;52.35;49.54;55.56;;
58251;Laerm;51449;51.676;5.812;2023-12-29T00:56:25;53.12;50.11;56.91;;
58251;Laerm;51449;51.676;5.812;2023-12-29T00:58:46;52.95;50.03;56.39;;
58251;Laerm;51449;51.676;5.812;2023-12-29T01:01:08;53.02;50.20;56.23;;
58251;Laerm;51449;51.676;5.812;2023-12-29T01:03:33;52.69;50.09;55.88;;
58251;Laerm;51449;51.676;5.812;2023-12-29T01:05:55;52.44;49.39;55.69;;
58251;Laerm;51449;51.676;5.812;2023-12-29T01:08:17;52.75;49.59;56.60;;
58251;Laerm;51449;51.676;5.812;2023-12-29T01:10:38;52.67;49.85;56.04;;
58251;Laerm;51449;51.676;5.812;2023-12-29T01:13:00;52.46;49.88;55.93;;
58251;Laerm;51449;51.676;5.812;2023-12-29T01:15:22;52.41;49.78;55.84;;
58251;Laerm;51449;51.676;5.812;2023-12-29T01:17:44;52.44;49.60;57.75;;
58251;Laerm;51449;51.676;5.812;2023-12-29T01:20:08;52.29;49.96;55.33;;
58251;Laerm;51449;51.676;5.812;2023-12-29T01:22:30;52.25;50.06;55.36;;
58251;Laerm;51449;51.676;5.812;2023-12-29T01:24:52;52.36;49.67;55.17;;
58251;Laerm;51449;51.676;5.812;2023-12-29T01:27:13;52.30;49.86;55.72;;
58251;Laerm;51449;51.676;5.812;2023-12-29T01:29:35;52.21;49.46;55.80;;
58251;Laerm;51449;51.676;5.812;2023-12-29T01:31:58;52.28;49.54;55.86;;
58251;Laerm;51449;51.676;5.812;2023-12-29T01:34:20;52.23;49.29;55.15;;
58251;Laerm;51449;51.676;5.812;2023-12-29T01:36:41;52.10;49.43;55.08;;
58251;Laerm;51449;51.676;5.812;2023-12-29T01:39:04;52.20;49.47;55.42;;
58251;Laerm;51449;51.676;5.812;2023-12-29T01:41:26;51.94;49.51;55.35;;
58251;Laerm;51449;51.676;5.812;2023-12-29T01:44:19;51.58;49.28;54.38;;
58251;Laerm;51449;51.676;5.812;2023-12-29T01:46:44;51.26;49.31;54.20;;
58251;Laerm;51449;51.676;5.812;2023-12-29T01:49:07;51.44;49.18;54.53;;
58251;Laerm;51449;51.676;5.812;2023-12-29T01:51:30;51.40;48.80;53.94;;
58251;Laerm;51449;51.676;5.812;2023-12-29T01:53:57;51.60;49.10;57.58;;
58251;Laerm;51449;51.676;5.812;2023-12-29T01:56:20;51.53;49.41;54.51;;
58251;Laerm;51449;51.676;5.812;2023-12-29T01:58:45;51.44;48.78;54.03;;
58251;Laerm;51449;51.676;5.812;2023-12-29T02:01:10;51.30;49.03;54.88;;
58251;Laerm;51449;51.676;5.812;2023-12-29T02:03:33;51.60;49.21;54.76;;
58251;Laerm;51449;51.676;5.812;2023-12-29T02:05:57;51.58;49.34;54.56;;
58251;Laerm;51449;51.676;5.812;2023-12-29T02:08:21;51.46;49.08;57.75;;
58251;Laerm;51449;51.676;5.812;2023-12-29T02:10:44;51.31;49.15;57.32;;
58251;Laerm;51449;51.676;5.812;2023-12-29T02:13:08;51.33;48.52;53.53;;
58251;Laerm;51449;51.676;5.812;2023-12-29T02:15:29;51.45;49.65;54.05;;
58251;Laerm;51449;51.676;5.812;2023-12-29T02:18:02;50.90;48.76;53.69;;
58251;Laerm;51449;51.676;5.812;2023-12-29T02:20:28;51.15;49.11;53.72;;
58251;Laerm;51449;51.676;5.812;2023-12-29T02:22:50;51.20;49.21;54.28;;
58251;Laerm;51449;51.676;5.812;2023-12-29T02:25:11;50.99;48.79;53.28;;
58251;Laerm;51449;51.676;5.812;2023-12-29T02:28:10;51.03;48.98;54.42;;
58251;Laerm;51449;51.676;5.812;2023-12-29T02:31:12;51.09;48.86;54.17;;
58251;Laerm;51449;51.676;5.812;2023-12-29T02:33:40;51.00;49.14;53.28;;
58251;Laerm;51449;51.676;5.812;2023-12-29T02:36:04;50.68;48.59;53.21;;
58251;Laerm;51449;51.676;5.812;2023-12-29T02:38:28;50.97;48.39;53.56;;
58251;Laerm;51449;51.676;5.812;2023-12-29T02:40:50;51.10;48.89;55.44;;
58251;Laerm;51449;51.676;5.812;2023-12-29T02:43:12;50.45;48.44;53.26;;
58251;Laerm;51449;51.676;5.812;2023-12-29T02:45:34;49.71;47.76;55.31;;
58251;Laerm;51449;51.676;5.812;2023-12-29T02:47:56;49.76;48.15;54.55;;
58251;Laerm;51449;51.676;5.812;2023-12-29T02:50:19;49.85;48.06;55.15;;
58251;Laerm;51449;51.676;5.812;2023-12-29T02:52:41;49.88;48.20;55.94;;
58251;Laerm;51449;51.676;5.812;2023-12-29T02:55:03;49.79;48.19;55.86;;
58251;Laerm;51449;51.676;5.812;2023-12-29T02:57:25;49.71;48.08;56.20;;
58251;Laerm;51449;51.676;5.812;2023-12-29T02:59:47;49.63;47.84;54.92;;
58251;Laerm;51449;51.676;5.812;2023-12-29T03:02:09;49.99;48.20;55.41;;
58251;Laerm;51449;51.676;5.812;2023-12-29T03:04:31;50.03;47.87;55.28;;
58251;Laerm;51449;51.676;5.812;2023-12-29T03:06:52;49.97;48.29;52.11;;
58251;Laerm;51449;51.676;5.812;2023-12-29T03:09:16;50.08;48.40;52.39;;
58251;Laerm;51449;51.676;5.812;2023-12-29T03:11:37;50.20;48.50;54.66;;
58251;Laerm;51449;51.676;5.812;2023-12-29T03:13:59;50.42;48.42;55.35;;
58251;Laerm;51449;51.676;5.812;2023-12-29T03:16:21;50.32;48.77;55.74;;
58251;Laerm;51449;51.676;5.812;2023-12-29T03:18:43;50.20;48.26;55.27;;
58251;Laerm;51449;51.676;5.812;2023-12-29T03:21:06;50.10;48.28;54.55;;
58251;Laerm;51449;51.676;5.812;2023-12-29T03:23:29;50.38;48.59;55.87;;
58251;Laerm;51449;51.676;5.812;2023-12-29T03:25:51;50.37;48.72;55.80;;
58251;Laerm;51449;51.676;5.812;2023-12-29T03:28:13;50.57;48.27;55.85;;
58251;Laerm;51449;51.676;5.812;2023-12-29T03:30:35;50.48;48.63;55.74;;
58251;Laerm;51449;51.676;5.812;2023-12-29T03:32:58;50.33;48.65;55.11;;
58251;Laerm;51449;51.676;5.812;2023-12-29T03:35:22;50.28;48.61;55.68;;
58251;Laerm;51449;51.676;5.812;2023-12-29T03:37:44;50.27;48.44;54.35;;
58251;Laerm;51449;51.676;5.812;2023-12-29T03:40:08;50.24;48.47;53.63;;
58251;Laerm;51449;51.676;5.812;2023-12-29T03:42:32;50.42;48.56;55.66;;
58251;Laerm;51449;51.676;5.812;2023-12-29T03:44:55;50.28;48.63;55.42;;
58251;Laerm;51449;51.676;5.812;2023-12-29T03:47:17;50.32;48.50;54.85;;
58251;Laerm;51449;51.676;5.812;2023-12-29T03:49:39;50.40;48.11;52.28;;
58251;Laerm;51449;51.676;5.812;2023-12-29T03:52:01;50.49;48.58;55.53;;
58251;Laerm;51449;51.676;5.812;2023-12-29T03:54:23;49.92;48.10;57.61;;
58251;Laerm;51449;51.676;5.812;2023-12-29T03:56:44;49.92;48.32;55.46;;
58251;Laerm;51449;51.676;5.812;2023-12-29T03:59:07;49.89;48.20;55.73;;
58251;Laerm;51449;51.676;5.812;2023-12-29T04:01:29;50.21;48.25;57.55;;
58251;Laerm;51449;51.676;5.812;2023-12-29T04:03:51;50.92;48.50;56.85;;
58251;Laerm;51449;51.676;5.812;2023-12-29T04:06:12;51.15;48.34;53.55;;
58251;Laerm;51449;51.676;5.812;2023-12-29T04:08:35;51.56;48.72;59.74;;
58251;Laerm;51449;51.676;5.812;2023-12-29T04:10:57;53.00;48.98;56.38;;
58251;Laerm;51449;51.676;5.812;2023-12-29T04:13:19;53.14;50.62;59.46;;
58251;Laerm;51449;51.676;5.812;2023-12-29T04:15:41;52.41;49.95;56.77;;
58251;Laerm;51449;51.676;5.812;2023-12-29T04:18:03;52.29;49.76;59.03;;
58251;Laerm;51449;51.676;5.812;2023-12-29T04:20:26;53.18;50.53;55.99;;
58251;Laerm;51449;51.676;5.812;2023-12-29T04:22:48;53.31;50.41;55.51;;
58251;Laerm;51449;51.676;5.812;2023-12-29T04:25:10;52.97;49.54;56.24;;
58251;Laerm;51449;51.676;5.812;2023-12-29T04:27:32;53.73;50.33;60.03;;
58251;Laerm;51449;51.676;5.812;2023-12-29T04:29:54;53.22;50.66;59.74;;
58251;Laerm;51449;51.676;5.812;2023-12-29T04:32:17;52.72;48.59;56.54;;
58251;Laerm;51449;51.676;5.812;2023-12-29T04:34:38;53.09;50.54;55.21;;
58251;Laerm;51449;51.676;5.812;2023-12-29T04:37:00;52.39;49.43;59.65;;
58251;Laerm;51449;51.676;5.812;2023-12-29T04:39:22;52.08;49.42;56.89;;
58251;Laerm;51449;51.676;5.812;2023-12-29T04:41:44;52.51;50.24;55.07;;
58251;Laerm;51449;51.676;5.812;2023-12-29T04:44:06;52.86;50.46;55.47;;
58251;Laerm;51449;51.676;5.812;2023-12-29T04:46:28;52.74;49.89;59.00;;
58251;Laerm;51449;51.676;5.812;2023-12-29T04:48:49;52.72;50.20;56.17;;
58251;Laerm;51449;51.676;5.812;2023-12-29T04:51:11;52.19;49.87;57.38;;
58251;Laerm;51449;51.676;5.812;2023-12-29T04:53:33;52.39;49.84;54.48;;
58251;Laerm;51449;51.676;5.812;2023-12-29T04:55:56;52.51;48.95;59.15;;
58251;Laerm;51449;51.676;5.812;2023-12-29T04:58:17;52.41;49.56;58.37;;
58251;Laerm;51449;51.676;5.812;2023-12-29T05:00:39;52.61;50.04;59.26;;
58251;Laerm;51449;51.676;5.812;2023-12-29T05:03:01;52.65;50.38;58.15;;
58251;Laerm;51449;51.676;5.812;2023-12-29T05:05:23;52.55;49.94;56.73;;
58251;Laerm;51449;51.676;5.812;2023-12-29T05:07:45;52.28;49.33;58.99;;
58251;Laerm;51449;51.676;5.812;2023-12-29T05:10:08;52.41;48.62;55.35;;
58251;Laerm;51449;51.676;5.812;2023-12-29T05:12:30;52.58;50.09;59.31;;
58251;Laerm;51449;51.676;5.812;2023-12-29T05:14:52;50.76;48.04;53.71;;
58251;Laerm;51449;51.676;5.812;2023-12-29T05:17:13;50.39;48.21;53.81;;
58251;Laerm;51449;51.676;5.812;2023-12-29T05:19:36;50.36;48.32;53.91;;
58251;Laerm;51449;51.676;5.812;2023-12-29T05:21:58;50.52;48.28;56.65;;
58251;Laerm;51449;51.676;5.812;2023-12-29T05:24:20;51.02;49.04;53.38;;
58251;Laerm;51449;51.676;5.812;2023-12-29T05:26:41;50.81;48.84;53.08;;
58251;Laerm;51449;51.676;5.812;2023-12-29T05:29:04;50.54;48.13;53.39;;
58251;Laerm;51449;51.676;5.812;2023-12-29T05:31:26;50.49;47.82;53.39;;
58251;Laerm;51449;51.676;5.812;2023-12-29T05:33:48;50.69;48.30;53.95;;
58251;Laerm;51449;51.676;5.812;2023-12-29T05:36:11;51.79;49.11;54.40;;
58251;Laerm;51449;51.676;5.812;2023-12-29T05:38:33;51.56;49.37;53.91;;
58251;Laerm;51449;51.676;5.812;2023-12-29T05:40:54;51.84;49.53;54.03;;
58251;Laerm;51449;51.676;5.812;2023-12-29T05:43:18;51.76;49.43;54.55;;
58251;Laerm;51449;51.676;5.812;2023-12-29T05:45:40;51.98;49.32;58.55;;
58251;Laerm;51449;51.676;5.812;2023-12-29T05:48:03;52.91;49.59;58.29;;
58251;Laerm;51449;51.676;5.812;2023-12-29T05:50:25;53.03;50.39;55.36;;
58251;Laerm;51449;51.676;5.812;2023-12-29T05:52:47;52.80;50.50;54.62;;
58251;Laerm;51449;51.676;5.812;2023-12-29T05:55:13;52.73;50.36;54.63;;
58251;Laerm;51449;51.676;5.812;2023-12-29T05:57:35;53.31;50.84;55.44;;
58251;Laerm;51449;51.676;5.812;2023-12-29T05:59:57;53.74;50.79;57.61;;
58251;Laerm;51449;51.676;5.812;2023-12-29T06:02:19;53.71;50.78;58.31;;
58251;Laerm;51449;51.676;5.812;2023-12-29T06:04:40;53.11;50.45;55.48;;
58251;Laerm;51449;51.676;5.812;2023-12-29T06:07:03;53.17;50.92;55.32;;
58251;Laerm;51449;51.676;5.812;2023-12-29T06:09:26;53.10;50.53;55.00;;
58251;Laerm;51449;51.676;5.812;2023-12-29T06:11:47;53.07;50.91;55.08;;
58251;Laerm;51449;51.676;5.812;2023-12-29T06:14:09;53.16;50.29;55.62;;
58251;Laerm;51449;51.676;5.812;2023-12-29T06:16:31;53.25;51.12;55.13;;
58251;Laerm;51449;51.676;5.812;2023-12-29T06:18:54;53.36;50.99;55.67;;
58251;Laerm;51449;51.676;5.812;2023-12-29T06:21:16;53.61;51.18;57.88;;
58251;Laerm;51449;51.676;5.812;2023-12-29T06:23:37;54.26;51.97;57.82;;
58251;Laerm;51449;51.676;5.812;2023-12-29T06:25:59;54.41;51.78;57.73;;
58251;Laerm;51449;51.676;5.812;2023-12-29T06:28:21;54.52;51.88;57.26;;
58251;Laerm;51449;51.676;5.812;2023-12-29T06:30:43;54.56;52.35;56.63;;
58251;Laerm;51449;51.676;5.812;2023-12-29T06:33:05;54.78;52.42;57.24;;
58251;Laerm;51449;51.676;5.812;2023-12-29T06:35:27;54.48;51.93;56.73;;
58251;Laerm;51449;51.676;5.812;2023-12-29T06:37:50;53.95;50.97;55.95;;
58251;Laerm;51449;51.676;5.812;2023-12-29T06:40:12;53.78;51.09;59.39;;
58251;Laerm;51449;51.676;5.812;2023-12-29T06:42:34;53.81;51.70;59.22;;
58251;Laerm;51449;51.676;5.812;2023-12-29T06:44:57;53.95;51.89;55.88;;
58251;Laerm;51449;51.676;5.812;2023-12-29T06:47:19;53.77;51.60;60.58;;
58251;Laerm;51449;51.676;5.812;2023-12-29T06:49:41;53.36;50.98;55.31;;
58251;Laerm;51449;51.676;5.812;2023-12-29T06:52:03;53.15;51.17;55.37;;
58251;Laerm;51449;51.676;5.812;2023-12-29T06:54:25;53.23;51.07;55.18;;
58251;Laerm;51449;51.676;5.812;2023-12-29T06:56:47;53.11;50.82;54.98;;
58251;Laerm;51449;51.676;5.812;2023-12-29T06:59:10;53.01;50.83;58.03;;
58251;Laerm;51449;51.676;5.812;2023-12-29T07:01:32;53.12;51.01;54.93;;
58251;Laerm;51449;51.676;5.812;2023-12-29T07:03:54;53.12;49.90;59.46;;
58251;Laerm;51449;51.676;5.812;2023-12-29T07:06:16;53.86;50.71;56.67;;
58251;Laerm;51449;51.676;5.812;2023-12-29T07:08:37;53.26;50.46;57.42;;
58251;Laerm;51449;51.676;5.812;2023-12-29T07:11:00;53.36;49.71;58.76;;
58251;Laerm;51449;51.676;5.812;2023-12-29T07:13:21;52.48;48.79;59.30;;
58251;Laerm;51449;51.676;5.812;2023-12-29T07:15:44;52.95;49.54;55.23;;
58251;Laerm;51449;51.676;5.812;2023-12-29T07:18:06;52.63;48.87;55.14;;
58251;Laerm;51449;51.676;5.812;2023-12-29T07:20:28;52.21;49.32;54.84;;
58251;Laerm;51449;51.676;5.812;2023-12-29T07:22:50;52.29;48.88;54.91;;
58251;Laerm;51449;51.676;5.812;2023-12-29T07:25:13;52.22;48.45;54.50;;
58251;Laerm;51449;51.676;5.812;2023-12-29T07:27:35;52.28;48.87;55.24;;
58251;Laerm;51449;51.676;5.812;2023-12-29T07:29:57;51.68;48.20;54.92;;
58251;Laerm;51449;51.676;5.812;2023-12-29T07:32:19;51.64;48.47;55.49;;
58251;Laerm;51449;51.676;5.812;2023-12-29T07:34:41;51.53;48.52;57.38;;
58251;Laerm;51449;51.676;5.812;2023-12-29T07:37:03;51.54;48.22;55.33;;
58251;Laerm;51449;51.676;5.812;2023-12-29T07:39:25;50.88;47.66;54.31;;
58251;Laerm;51449;51.676;5.812;2023-12-29T07:41:47;50.72;48.99;52.68;;
58251;Laerm;51449;51.676;5.812;2023-12-29T07:44:11;50.61;48.56;52.53;;
58251;Laerm;51449;51.676;5.812;2023-12-29T07:46:37;50.88;48.91;52.78;;
58251;Laerm;51449;51.676;5.812;2023-12-29T07:49:00;50.77;48.80;53.26;;
58251;Laerm;51449;51.676;5.812;2023-12-29T07:51:22;50.79;48.63;59.06;;
58251;Laerm;51449;51.676;5.812;2023-12-29T07:53:44;50.77;48.72;52.53;;
58251;Laerm;51449;51.676;5.812;2023-12-29T07:56:06;50.75;48.62;52.75;;
58251;Laerm;51449;51.676;5.812;2023-12-29T07:58:29;50.71;48.80;54.55;;
58251;Laerm;51449;51.676;5.812;2023-12-29T08:00:51;50.58;48.48;52.42;;
58251;Laerm;51449;51.676;5.812;2023-12-29T08:03:13;50.56;48.78;52.40;;
58251;Laerm;51449;51.676;5.812;2023-12-29T08:05:34;50.65;48.76;52.82;;
58251;Laerm;51449;51.676;5.812;2023-12-29T08:07:56;50.36;48.50;57.85;;
58251;Laerm;51449;51.676;5.812;2023-12-29T08:10:18;50.16;48.43;52.12;;
58251;Laerm;51449;51.676;5.812;2023-12-29T08:12:40;50.18;48.58;52.39;;
58251;Laerm;51449;51.676;5.812;2023-12-29T08:15:02;50.46;48.57;53.09;;
58251;Laerm;51449;51.676;5.812;2023-12-29T08:17:24;50.80;48.87;53.08;;
58251;Laerm;51449;51.676;5.812;2023-12-29T08:19:46;50.97;48.96;52.85;;
58251;Laerm;51449;51.676;5.812;2023-12-29T08:22:08;50.81;48.73;52.96;;
58251;Laerm;51449;51.676;5.812;2023-12-29T08:24:30;50.65;48.52;52.42;;
58251;Laerm;51449;51.676;5.812;2023-12-29T08:26:52;50.67;48.38;53.70;;
58251;Laerm;51449;51.676;5.812;2023-12-29T08:29:15;51.63;48.53;57.93;;
58251;Laerm;51449;51.676;5.812;2023-12-29T08:31:38;51.86;49.39;55.48;;
58251;Laerm;51449;51.676;5.812;2023-12-29T08:34:00;52.18;49.50;56.99;;
58251;Laerm;51449;51.676;5.812;2023-12-29T08:36:22;52.15;49.42;56.86;;
58251;Laerm;51449;51.676;5.812;2023-12-29T08:38:44;52.12;49.43;57.35;;
58251;Laerm;51449;51.676;5.812;2023-12-29T08:41:05;52.32;50.15;56.58;;
58251;Laerm;51449;51.676;5.812;2023-12-29T08:43:28;52.13;49.60;56.95;;
58251;Laerm;51449;51.676;5.812;2023-12-29T08:45:50;52.15;49.77;56.22;;
58251;Laerm;51449;51.676;5.812;2023-12-29T08:48:12;52.08;49.07;56.25;;
58251;Laerm;51449;51.676;5.812;2023-12-29T08:50:34;52.13;49.48;56.47;;
58251;Laerm;51449;51.676;5.812;2023-12-29T08:52:55;52.40;49.80;56.55;;
58251;Laerm;51449;51.676;5.812;2023-12-29T08:55:17;52.50;49.94;57.22;;
58251;Laerm;51449;51.676;5.812;2023-12-29T08:57:39;52.51;49.97;56.01;;
58251;Laerm;51449;51.676;5.812;2023-12-29T09:00:01;52.34;49.43;56.08;;
58251;Laerm;51449;51.676;5.812;2023-12-29T09:02:23;53.06;49.83;56.89;;
58251;Laerm;51449;51.676;5.812;2023-12-29T09:04:45;52.50;49.83;56.89;;
58251;Laerm;51449;51.676;5.812;2023-12-29T09:07:07;52.31;49.07;56.87;;
58251;Laerm;51449;51.676;5.812;2023-12-29T09:09:29;52.04;49.03;57.45;;
58251;Laerm;51449;51.676;5.812;2023-12-29T09:11:50;51.81;48.38;58.93;;
58251;Laerm;51449;51.676;5.812;2023-12-29T09:14:12;51.86;49.52;57.33;;
58251;Laerm;51449;51.676;5.812;2023-12-29T09:16:37;51.58;49.11;56.78;;
58251;Laerm;51449;51.676;5.812;2023-12-29T09:19:03;51.58;49.13;57.02;;
58251;Laerm;51449;51.676;5.812;2023-12-29T09:21:38;51.53;48.79;56.56;;
58251;Laerm;51449;51.676;5.812;2023-12-29T09:24:00;51.42;48.38;56.68;;
58251;Laerm;51449;51.676;5.812;2023-12-29T09:26:22;51.48;48.79;57.29;;
58251;Laerm;51449;51.676;5.812;2023-12-29T09:28:44;51.85;48.88;57.61;;
58251;Laerm;51449;51.676;5.812;2023-12-29T09:31:06;51.98;49.31;57.34;;
58251;Laerm;51449;51.676;5.812;2023-12-29T09:33:28;52.08;48.33;57.67;;
58251;Laerm;51449;51.676;5.812;2023-12-29T09:35:50;52.02;48.91;57.77;;
58251;Laerm;51449;51.676;5.812;2023-12-29T09:38:13;51.87;49.27;56.34;;
58251;Laerm;51449;51.676;5.812;2023-12-29T09:40:36;51.87;49.65;57.00;;
58251;Laerm;51449;51.676;5.812;2023-12-29T09:43:00;52.05;49.49;57.85;;
58251;Laerm;51449;51.676;5.812;2023-12-29T09:45:26;51.86;49.02;56.65;;
58251;Laerm;51449;51.676;5.812;2023-12-29T09:47:51;51.91;49.52;56.04;;
58251;Laerm;51449;51.676;5.812;2023-12-29T09:50:17;51.75;49.42;55.77;;
58251;Laerm;51449;51.676;5.812;2023-12-29T09:52:40;51.62;48.95;56.22;;
58251;Laerm;51449;51.676;5.812;2023-12-29T09:55:03;51.56;48.77;55.95;;
58251;Laerm;51449;51.676;5.812;2023-12-29T09:57:27;51.59;48.95;54.94;;
58251;Laerm;51449;51.676;5.812;2023-12-29T09:59:49;51.69;49.21;55.97;;
58251;Laerm;51449;51.676;5.812;2023-12-29T10:02:15;51.70;49.11;56.48;;
58251;Laerm;51449;51.676;5.812;2023-12-29T10:04:40;51.72;49.31;56.01;;
58251;Laerm;51449;51.676;5.812;2023-12-29T10:07:04;51.61;49.26;55.21;;
58251;Laerm;51449;51.676;5.812;2023-12-29T10:09:31;51.57;49.11;55.85;;
58251;Laerm;51449;51.676;5.812;2023-12-29T10:11:55;51.51;48.91;55.46;;
58251;Laerm;51449;51.676;5.812;2023-12-29T10:17:31;51.25;48.42;59.31;;
58251;Laerm;51449;51.676;5.812;2023-12-29T10:20:27;51.30;48.48;56.97;;
58251;Laerm;51449;51.676;5.812;2023-12-29T10:23:07;51.66;48.94;56.62;;
58251;Laerm;51449;51.676;5.812;2023-12-29T10:25:31;51.67;49.02;54.63;;
58251;Laerm;51449;51.676;5.812;2023-12-29T10:27:55;51.78;48.67;56.57;;
58251;Laerm;51449;51.676;5.812;2023-12-29T10:30:18;51.87;49.56;56.25;;
58251;Laerm;51449;51.676;5.812;2023-12-29T10:32:52;51.84;49.39;58.51;;
58251;Laerm;51449;51.676;5.812;2023-12-29T10:35:14;51.79;48.88;55.20;;
58251;Laerm;51449;51.676;5.812;2023-12-29T10:37:37;51.79;48.51;56.89;;
58251;Laerm;51449;51.676;5.812;2023-12-29T10:39:59;51.90;49.46;57.00;;
58251;Laerm;51449;51.676;5.812;2023-12-29T10:42:22;51.65;49.28;55.65;;
58251;Laerm;51449;51.676;5.812;2023-12-29T10:44:45;51.45;48.99;56.70;;
58251;Laerm;51449;51.676;5.812;2023-12-29T10:47:11;51.34;48.82;55.73;;
58251;Laerm;51449;51.676;5.812;2023-12-29T10:49:33;51.57;48.98;56.81;;
58251;Laerm;51449;51.676;5.812;2023-12-29T10:51:56;51.46;49.18;57.25;;
58251;Laerm;51449;51.676;5.812;2023-12-29T10:54:20;51.50;49.09;57.07;;
58251;Laerm;51449;51.676;5.812;2023-12-29T10:56:45;51.47;49.12;56.73;;
58251;Laerm;51449;51.676;5.812;2023-12-29T10:59:07;51.26;48.86;56.29;;
58251;Laerm;51449;51.676;5.812;2023-12-29T11:01:34;51.28;48.84;56.63;;
58251;Laerm;51449;51.676;5.812;2023-12-29T11:04:03;50.97;48.23;55.08;;
58251;Laerm;51449;51.676;5.812;2023-12-29T11:06:27;51.17;48.60;55.05;;
58251;Laerm;51449;51.676;5.812;2023-12-29T11:08:50;51.11;48.31;56.80;;
58251;Laerm;51449;51.676;5.812;2023-12-29T11:11:12;51.13;48.34;55.11;;
58251;Laerm;51449;51.676;5.812;2023-12-29T11:13:34;51.10;48.29;55.99;;
58251;Laerm;51449;51.676;5.812;2023-12-29T11:15:58;51.29;48.35;55.88;;
58251;Laerm;51449;51.676;5.812;2023-12-29T11:18:23;51.23;48.46;56.67;;
58251;Laerm;51449;51.676;5.812;2023-12-29T11:20:46;51.25;49.10;56.61;;
58251;Laerm;51449;51.676;5.812;2023-12-29T11:23:10;51.03;48.33;55.70;;
58251;Laerm;51449;51.676;5.812;2023-12-29T11:25:35;51.06;48.76;55.87;;
58251;Laerm;51449;51.676;5.812;2023-12-29T11:27:58;51.26;48.75;56.12;;
58251;Laerm;51449;51.676;5.812;2023-12-29T11:30:21;51.04;48.74;55.77;;
58251;Laerm;51449;51.676;5.812;2023-12-29T11:32:57;51.38;49.13;56.80;;
58251;Laerm;51449;51.676;5.812;2023-12-29T11:35:28;51.20;49.02;56.25;;
58251;Laerm;51449;51.676;5.812;2023-12-29T11:41:13;51.28;48.70;56.32;;
58251;Laerm;51449;51.676;5.812;2023-12-29T11:43:39;50.94;48.51;56.02;;
58251;Laerm;51449;51.676;5.812;2023-12-29T11:46:01;50.54;48.45;55.57;;
58251;Laerm;51449;51.676;5.812;2023-12-29T11:48:56;50.55;48.52;53.60;;
58251;Laerm;51449;51.676;5.812;2023-12-29T11:53:55;50.51;48.25;53.66;;
58251;Laerm;51449;51.676;5.812;2023-12-29T11:56:17;50.61;48.48;55.96;;
58251;Laerm;51449;51.676;5.812;2023-12-29T11:58:39;51.07;48.94;55.77;;
58251;Laerm;51449;51.676;5.812;2023-12-29T12:01:02;51.64;48.60;60.80;;
58251;Laerm;51449;51.676;5.812;2023-12-29T12:03:28;50.85;48.64;54.29;;
58251;Laerm;51449;51.676;5.812;2023-12-29T12:05:51;51.07;48.36;55.15;;
58251;Laerm;51449;51.676;5.812;2023-12-29T12:08:30;51.61;48.33;60.83;;
58251;Laerm;51449;51.676;5.812;2023-12-29T12:10:52;51.10;48.40;59.05;;
58251;Laerm;51449;51.676;5.812;2023-12-29T12:13:44;50.98;48.33;55.11;;
58251;Laerm;51449;51.676;5.812;2023-12-29T12:16:06;51.08;48.30;58.80;;
58251;Laerm;51449;51.676;5.812;2023-12-29T12:18:28;51.18;48.51;59.30;;
58251;Laerm;51449;51.676;5.812;2023-12-29T12:20:51;51.74;48.44;58.23;;
58251;Laerm;51449;51.676;5.812;2023-12-29T12:23:20;51.71;48.49;57.83;;
58251;Laerm;51449;51.676;5.812;2023-12-29T12:25:46;50.98;48.01;57.27;;
58251;Laerm;51449;51.676;5.812;2023-12-29T12:28:09;51.20;48.45;57.85;;
58251;Laerm;51449;51.676;5.812;2023-12-29T12:30:33;50.43;48.08;54.36;;
58251;Laerm;51449;51.676;5.812;2023-12-29T12:33:00;50.85;48.05;57.54;;
58251;Laerm;51449;51.676;5.812;2023-12-29T12:35:23;50.24;48.14;57.80;;
58251;Laerm;51449;51.676;5.812;2023-12-29T12:37:47;51.44;47.89;58.04;;
58251;Laerm;51449;51.676;5.812;2023-12-29T12:40:10;50.47;48.04;57.63;;
58251;Laerm;51449;51.676;5.812;2023-12-29T12:42:38;50.26;48.25;56.09;;
58251;Laerm;51449;51.676;5.812;2023-12-29T12:45:12;50.34;48.27;54.10;;
58251;Laerm;51449;51.676;5.812;2023-12-29T12:47:41;50.32;48.09;55.09;;
58251;Laerm;51449;51.676;5.812;2023-12-29T12:50:07;50.31;48.08;53.47;;
58251;Laerm;51449;51.676;5.812;2023-12-29T12:52:32;50.38;47.96;55.44;;
58251;Laerm;51449;51.676;5.812;2023-12-29T12:54:55;50.35;48.04;57.41;;
58251;Laerm;51449;51.676;5.812;2023-12-29T12:57:19;50.92;48.05;57.20;;
58251;Laerm;51449;51.676;5.812;2023-12-29T12:59:41;50.89;47.80;56.76;;
58251;Laerm;51449;51.676;5.812;2023-12-29T13:02:04;50.31;48.02;54.84;;
58251;Laerm;51449;51.676;5.812;2023-12-29T13:04:27;50.65;48.28;54.11;;
58251;Laerm;51449;51.676;5.812;2023-12-29T13:06:50;50.56;48.19;54.09;;
58251;Laerm;51449;51.676;5.812;2023-12-29T13:09:14;51.02;48.45;55.97;;
58251;Laerm;51449;51.676;5.812;2023-12-29T13:11:40;51.02;48.16;57.40;;
58251;Laerm;51449;51.676;5.812;2023-12-29T13:14:03;50.67;48.32;54.33;;
58251;Laerm;51449;51.676;5.812;2023-12-29T13:16:37;51.02;48.03;54.64;;
58251;Laerm;51449;51.676;5.812;2023-12-29T13:19:23;50.49;48.05;53.92;;
58251;Laerm;51449;51.676;5.812;2023-12-29T13:21:52;50.73;47.98;54.67;;
58251;Laerm;51449;51.676;5.812;2023-12-29T13:24:18;50.71;48.42;56.03;;
58251;Laerm;51449;51.676;5.812;2023-12-29T13:26:40;50.56;48.05;56.52;;
58251;Laerm;51449;51.676;5.812;2023-12-29T13:29:02;50.15;48.02;53.22;;
58251;Laerm;51449;51.676;5.812;2023-12-29T13:31:24;50.34;48.01;54.99;;
58251;Laerm;51449;51.676;5.812;2023-12-29T13:34:04;50.26;47.92;53.65;;